This is the latest recevied weather packets stored in our database for station/object SP8PUB-10. If no packets are shown the sender has not sent any weather packets the latest 10 day(s).
| Time | Temp. | Humidity | Pressure | Rain* | Wind** | Luminosity | Snow |
|---|---|---|---|---|---|---|---|
| 1777692022 | 2.78° C | 100% | 1026 hPa | - | - | - | - |
| 1777691122 | 2.78° C | 100% | 1026.1 hPa | - | - | - | - |
| 1777690222 | 2.78° C | 100% | 1026 hPa | - | - | - | - |
| 1777689322 | 2.78° C | 100% | 1025.9 hPa | - | - | - | - |
| 1777688422 | 3.33° C | 100% | 1025.8 hPa | - | - | - | - |
| 1777687522 | 3.33° C | 100% | 1025.9 hPa | - | - | - | - |
| 1777673124 | 6.67° C | 93% | 1025.9 hPa | - | - | - | - |
| 1777671324 | 7.78° C | 88% | 1025.9 hPa | - | - | - | - |
| 1777670424 | 7.78° C | 87% | 1025.8 hPa | - | - | - | - |
| 1777669524 | 8.33° C | 84% | 1025.6 hPa | - | - | - | - |
| 1777667724 | 9.44° C | 79% | 1025.5 hPa | - | - | - | - |
| 1777663223 | 12.22° C | 63% | 1025.2 hPa | - | - | - | - |
| 1777662323 | 12.78° C | 63% | 1025.1 hPa | - | - | - | - |
| 1777661423 | 13.33° C | 61% | 1025 hPa | - | - | - | - |
| 1777660523 | 13.89° C | 60% | 1025 hPa | - | - | - | - |
| 1777659622 | 14.44° C | 58% | 1024.9 hPa | - | - | - | - |
| 1777656022 | 15.56° C | 54% | 1024.5 hPa | - | - | - | - |
| 1777652422 | 16.67° C | 51% | 1024.4 hPa | - | - | - | - |
| 1777651522 | 16.67° C | 50% | 1024.4 hPa | - | - | - | - |
| 1777650621 | 17.22° C | 49% | 1024.2 hPa | - | - | - | - |
| 1777649721 | 17.22° C | 49% | 1024.5 hPa | - | - | - | - |
| 1777648821 | 17.78° C | 48% | 1024.5 hPa | - | - | - | - |
| 1777647921 | 17.78° C | 48% | 1024.7 hPa | - | - | - | - |
| 1777647021 | 17.78° C | 48% | 1024.8 hPa | - | - | - | - |
| 1777646121 | 17.78° C | 47% | 1024.7 hPa | - | - | - | - |
* Rain since midnight (hover to see other rain measurements)
** Current wind speed in m/s (hover to see current wind gust speed)